createdAt,value
2022-08-14T00:02:02.994Z,64.06
2022-08-14T00:04:35.635Z,65.28
2022-08-14T00:07:13.810Z,63.61
2022-08-14T00:10:01.830Z,63.67
2022-08-14T00:12:39.441Z,62.96
2022-08-14T00:15:16.754Z,62.11
2022-08-14T00:17:48.365Z,62.11
2022-08-14T00:20:30.909Z,62.39
2022-08-14T00:23:12.390Z,62.93
2022-08-14T00:25:53.772Z,63.09
2022-08-14T00:28:29.025Z,63.04
2022-08-14T00:31:00.295Z,62.44
2022-08-14T00:33:50.776Z,63.57
2022-08-14T00:36:36.780Z,62.92
2022-08-14T00:39:06.508Z,63.08
2022-08-14T00:41:36.465Z,62.68
2022-08-14T00:44:06.977Z,62.50
2022-08-14T00:46:37.342Z,63.08
2022-08-14T00:49:05.572Z,62.75
2022-08-14T00:51:37.656Z,63.09
2022-08-14T00:54:20.907Z,63.88
2022-08-14T00:56:55.285Z,63.24
2022-08-14T00:59:28.759Z,62.97
2022-08-14T01:02:01.043Z,62.26
2022-08-14T01:04:51.214Z,62.80
2022-08-14T01:07:22.644Z,63.15
2022-08-14T01:09:56.007Z,63.64
2022-08-14T01:12:27.086Z,64.10
2022-08-14T01:14:58.544Z,63.98
2022-08-14T01:17:51.988Z,63.72
2022-08-14T01:20:40.708Z,64.79
2022-08-14T01:23:15.715Z,64.45
2022-08-14T01:25:44.570Z,64.20
2022-08-14T01:28:46.517Z,64.03
2022-08-14T01:31:01.656Z,64.47
2022-08-14T01:33:30.360Z,65.73
2022-08-14T01:36:03.330Z,66.46
2022-08-14T01:38:34.452Z,67.33
2022-08-14T01:41:14.871Z,66.87
2022-08-14T01:43:56.028Z,67.14
2022-08-14T01:46:25.590Z,67.49
2022-08-14T01:49:02.523Z,67.20
2022-08-14T01:51:30.910Z,67.12
2022-08-14T01:54:16.041Z,67.71
2022-08-14T01:56:45.610Z,67.94
2022-08-14T01:59:18.575Z,68.04
2022-08-14T02:01:58.131Z,67.56
2022-08-14T02:04:40.913Z,67.83
2022-08-14T02:07:34.291Z,67.96
2022-08-14T02:10:13.116Z,67.26
2022-08-14T02:12:49.019Z,67.83
2022-08-14T02:15:25.907Z,68.20
2022-08-14T02:17:53.736Z,68.63
2022-08-14T02:20:23.839Z,68.87
2022-08-14T02:22:54.627Z,68.69
2022-08-14T02:25:23.248Z,68.33
2022-08-14T02:28:22.590Z,68.01
2022-08-14T02:30:45.411Z,67.76
2022-08-14T02:33:12.873Z,68.01
2022-08-14T02:35:43.533Z,68.97
2022-08-14T02:38:11.906Z,70.08
2022-08-14T02:41:00.113Z,70.73
2022-08-14T02:43:36.932Z,70.41
2022-08-14T02:46:13.527Z,69.56
2022-08-14T02:49:04.728Z,69.07
2022-08-14T02:51:36.779Z,69.76
2022-08-14T02:54:07.517Z,69.64
2022-08-14T02:57:15.394Z,69.74
2022-08-14T02:59:33.821Z,70.53
2022-08-14T03:02:03.781Z,72.15
2022-08-14T03:04:32.674Z,72.48
2022-08-14T03:07:07.096Z,73.47
2022-08-14T03:10:25.090Z,74.05
2022-08-14T03:12:32.408Z,73.69
2022-08-14T03:15:13.951Z,74.57
2022-08-14T03:17:57.458Z,75.19
2022-08-14T03:20:30.548Z,75.37
2022-08-14T03:23:03.362Z,75.12
2022-08-14T03:25:34.380Z,75.80
2022-08-14T03:28:07.253Z,75.46
2022-08-14T03:30:39.014Z,75.14
2022-08-14T03:33:11.018Z,75.43
2022-08-14T03:36:05.252Z,75.04
2022-08-14T03:39:15.183Z,73.74
2022-08-14T03:41:23.804Z,73.55
2022-08-14T03:44:01.198Z,72.32
2022-08-14T03:46:54.685Z,71.36
2022-08-14T03:49:28.917Z,70.89
2022-08-14T03:52:00.826Z,71.54
2022-08-14T03:54:29.835Z,70.82
2022-08-14T03:57:02.980Z,70.27
2022-08-14T03:59:32.958Z,69.65
2022-08-14T04:02:04.786Z,68.61
2022-08-14T04:04:51.525Z,68.86
2022-08-14T04:07:19.017Z,68.97
2022-08-14T04:09:49.759Z,68.41
2022-08-14T04:12:26.283Z,68.96
2022-08-14T04:14:54.296Z,68.10
2022-08-14T04:17:22.268Z,67.85
2022-08-14T04:19:49.855Z,67.28
2022-08-14T04:22:17.226Z,67.14
2022-08-14T04:24:49.631Z,66.92
2022-08-14T04:27:18.335Z,66.80
2022-08-14T04:29:45.578Z,65.85
2022-08-14T04:32:59.927Z,65.68
2022-08-14T04:35:07.439Z,65.48
2022-08-14T04:38:36.507Z,64.93
2022-08-14T04:41:16.824Z,64.58
2022-08-14T04:43:44.237Z,65.28
2022-08-14T04:46:55.934Z,66.88
2022-08-14T04:49:08.088Z,67.00
2022-08-14T04:51:46.441Z,67.67
2022-08-14T04:54:27.054Z,67.41
2022-08-14T04:56:56.260Z,67.85
2022-08-14T04:59:24.457Z,67.76
2022-08-14T05:01:56.769Z,66.62
2022-08-14T05:04:25.217Z,65.24
2022-08-14T05:06:55.229Z,65.47
2022-08-14T05:09:24.466Z,66.19
2022-08-14T05:11:56.063Z,66.55
2022-08-14T05:14:53.050Z,65.56
2022-08-14T05:17:32.184Z,64.82
2022-08-14T05:21:54.211Z,64.38
2022-08-14T05:23:00.053Z,63.56
2022-08-14T05:25:30.675Z,62.94
2022-08-14T05:28:27.843Z,61.61
2022-08-14T05:31:01.699Z,60.90
2022-08-14T05:33:33.605Z,59.95
2022-08-14T05:36:16.625Z,58.64
2022-08-14T05:38:47.531Z,58.99
2022-08-14T05:41:18.606Z,58.16
2022-08-14T05:43:48.366Z,58.90
2022-08-14T05:46:24.017Z,58.70
2022-08-14T05:48:57.356Z,59.67
2022-08-14T05:51:30.612Z,59.72
2022-08-14T05:54:10.177Z,58.76
2022-08-14T05:56:44.016Z,58.50
2022-08-14T05:59:36.865Z,58.36
2022-08-14T06:02:13.284Z,59.19
2022-08-14T06:04:50.393Z,58.75
2022-08-14T06:07:18.912Z,58.78
2022-08-14T06:09:52.299Z,58.27
2022-08-14T06:12:55.102Z,57.58
2022-08-14T06:15:17.869Z,57.46
2022-08-14T06:17:58.767Z,57.56
2022-08-14T06:20:30.724Z,57.29
2022-08-14T06:23:06.092Z,57.08
2022-08-14T06:25:38.611Z,56.92
2022-08-14T06:28:27.431Z,56.67
2022-08-14T06:30:56.738Z,57.61
2022-08-14T06:35:01.356Z,57.55
2022-08-14T06:36:18.415Z,57.52
2022-08-14T06:38:55.150Z,56.56
2022-08-14T06:41:56.700Z,57.33
2022-08-14T06:44:16.924Z,57.16
2022-08-14T06:46:49.339Z,57.29
2022-08-14T06:49:40.251Z,57.11
2022-08-14T06:52:17.549Z,57.72
2022-08-14T06:54:58.557Z,57.36
2022-08-14T06:57:47.176Z,58.04
2022-08-14T07:00:30.987Z,57.08
2022-08-14T07:03:21.629Z,56.74
2022-08-14T07:05:55.886Z,56.43
2022-08-14T07:08:31.767Z,56.27
2022-08-14T07:11:04.039Z,56.30
2022-08-14T07:13:34.985Z,56.92
2022-08-14T07:16:06.589Z,57.10
2022-08-14T07:18:50.879Z,56.79
2022-08-14T07:21:18.803Z,56.52
2022-08-14T07:23:46.428Z,56.29
2022-08-14T07:26:20.938Z,56.98
2022-08-14T07:28:49.819Z,56.42
2022-08-14T07:31:23.835Z,56.04
2022-08-14T07:33:52.027Z,56.41
2022-08-14T07:36:27.340Z,56.18
2022-08-14T07:39:12.349Z,56.19
2022-08-14T07:41:43.865Z,56.49
2022-08-14T07:44:29.758Z,55.85
2022-08-14T07:47:01.412Z,56.21
2022-08-14T07:49:29.092Z,55.30
2022-08-14T07:51:56.898Z,55.73
2022-08-14T07:58:58.232Z,54.80
2022-08-14T08:01:36.169Z,54.63
2022-08-14T08:04:04.633Z,54.53
2022-08-14T08:06:44.848Z,54.59
2022-08-14T08:09:14.526Z,53.95
2022-08-14T08:11:42.602Z,53.55
2022-08-14T08:14:17.202Z,53.26
2022-08-14T08:16:51.051Z,53.34
2022-08-14T08:19:19.584Z,53.00
2022-08-14T08:21:47.620Z,52.98
2022-08-14T08:24:19.662Z,52.91
2022-08-14T08:26:51.168Z,52.63
2022-08-14T08:29:29.016Z,52.32
2022-08-14T08:32:01.717Z,51.90
2022-08-14T08:34:47.585Z,51.71
2022-08-14T08:37:16.517Z,52.31
2022-08-14T08:40:01.588Z,53.08
2022-08-14T08:42:44.843Z,52.93
2022-08-14T08:45:18.339Z,53.23
2022-08-14T08:47:48.391Z,52.84
2022-08-14T08:53:03.640Z,53.01
2022-08-14T08:55:35.727Z,53.06
2022-08-14T08:58:16.181Z,52.23
2022-08-14T09:00:54.631Z,51.92
2022-08-14T09:03:27.498Z,51.56
2022-08-14T09:06:04.644Z,51.21
2022-08-14T09:08:51.924Z,51.16
2022-08-14T09:11:21.155Z,50.65
2022-08-14T09:13:54.295Z,49.86
2022-08-14T09:16:27.903Z,48.76
2022-08-14T09:18:56.030Z,48.96
2022-08-14T09:21:24.303Z,48.71
2022-08-14T09:24:29.654Z,47.89
2022-08-14T09:26:49.259Z,47.44
2022-08-14T09:29:23.292Z,47.66
2022-08-14T09:32:00.615Z,48.41
2022-08-14T09:34:36.814Z,48.52
2022-08-14T09:37:28.874Z,46.94
2022-08-14T09:40:04.269Z,46.37
2022-08-14T09:42:51.337Z,45.31
2022-08-14T09:45:52.916Z,44.62
2022-08-14T09:48:27.618Z,45.14
2022-08-14T09:54:18.363Z,44.75
2022-08-14T09:56:43.579Z,42.19
2022-08-14T09:59:15.959Z,42.48
2022-08-14T10:01:46.117Z,43.65
2022-08-14T10:04:33.890Z,44.51
2022-08-14T10:07:08.564Z,44.72
2022-08-14T10:10:00.106Z,44.27
2022-08-14T10:12:53.147Z,46.32
2022-08-14T10:15:25.390Z,47.67
2022-08-14T10:18:18.359Z,48.36
2022-08-14T10:21:02.009Z,47.18
2022-08-14T10:23:42.900Z,49.48
2022-08-14T10:26:11.989Z,50.74
2022-08-14T10:29:18.725Z,50.94
2022-08-14T10:31:43.248Z,50.20
2022-08-14T10:34:14.346Z,49.76
2022-08-14T10:36:48.042Z,50.98
2022-08-14T10:39:26.071Z,50.71
2022-08-14T10:42:16.622Z,53.15
2022-08-14T10:44:53.919Z,56.63
2022-08-14T10:47:41.340Z,58.58
2022-08-14T10:50:12.097Z,61.06
2022-08-14T10:52:47.139Z,62.34
2022-08-14T10:55:20.898Z,61.96
2022-08-14T10:57:57.184Z,62.53
2022-08-14T11:00:35.923Z,64.32
2022-08-14T11:03:26.507Z,64.99
2022-08-14T11:06:19.087Z,65.77
2022-08-14T11:08:58.063Z,65.62
2022-08-14T11:11:55.066Z,66.79
2022-08-14T11:14:23.091Z,66.64
2022-08-14T11:16:54.413Z,67.80
2022-08-14T11:19:24.383Z,66.84
2022-08-14T11:21:55.587Z,67.88
2022-08-14T11:24:54.630Z,67.82
2022-08-14T11:27:33.349Z,66.52
2022-08-14T11:30:50.369Z,66.38
2022-08-14T11:33:09.170Z,65.06
2022-08-14T11:35:48.483Z,63.86
2022-08-14T11:38:37.820Z,62.78
2022-08-14T11:44:53.735Z,61.35
2022-08-14T11:47:35.427Z,61.68
2022-08-14T11:50:34.160Z,58.26
2022-08-14T11:53:08.752Z,58.70
2022-08-14T11:55:39.061Z,57.47
2022-08-14T11:58:24.618Z,57.06
2022-08-14T12:01:04.140Z,56.49
2022-08-14T12:03:52.015Z,56.10
2022-08-14T12:06:39.192Z,55.39
2022-08-14T12:09:08.920Z,54.79
2022-08-14T12:11:51.672Z,54.66
2022-08-14T12:14:30.509Z,53.15
2022-08-14T12:17:13.218Z,53.15
2022-08-14T12:20:02.961Z,51.87
2022-08-14T12:22:42.367Z,52.43
2022-08-14T12:25:19.949Z,52.81
2022-08-14T12:27:52.598Z,52.71
2022-08-14T12:30:43.575Z,51.80
2022-08-14T12:33:30.861Z,51.45
2022-08-14T12:36:04.786Z,51.07
2022-08-14T12:38:43.694Z,51.11
2022-08-14T12:41:20.443Z,50.92
2022-08-14T12:43:51.819Z,50.82
2022-08-14T12:46:31.970Z,51.07
2022-08-14T12:49:11.991Z,50.67
2022-08-14T12:51:57.459Z,49.65
2022-08-14T12:54:28.455Z,50.53
2022-08-14T12:57:19.517Z,51.04
2022-08-14T12:59:50.679Z,51.15
2022-08-14T13:02:27.369Z,51.14
2022-08-14T13:05:08.135Z,51.86
2022-08-14T13:07:45.687Z,52.64
2022-08-14T13:10:47.814Z,52.70
2022-08-14T13:13:15.513Z,53.56
2022-08-14T13:15:45.713Z,51.76
2022-08-14T13:18:28.222Z,50.97
2022-08-14T13:21:02.069Z,49.75
2022-08-14T13:23:38.440Z,49.78
2022-08-14T13:26:09.112Z,49.60
2022-08-14T13:29:01.386Z,50.43
2022-08-14T13:31:36.642Z,50.95
2022-08-14T13:34:08.380Z,51.42
2022-08-14T13:36:54.162Z,52.05
2022-08-14T13:39:26.149Z,51.89
2022-08-14T13:41:55.648Z,51.79
2022-08-14T13:44:27.110Z,52.02
2022-08-14T13:46:55.788Z,52.79
2022-08-14T13:49:24.554Z,53.89
2022-08-14T13:52:01.368Z,53.76
2022-08-14T13:54:32.853Z,54.71
2022-08-14T13:57:08.947Z,54.85
2022-08-14T13:59:46.351Z,55.07
2022-08-14T14:02:31.649Z,55.89
2022-08-14T14:05:04.459Z,55.46
2022-08-14T14:07:34.261Z,55.87
2022-08-14T14:10:09.845Z,56.11
2022-08-14T14:12:41.295Z,55.32
2022-08-14T14:15:12.408Z,56.39
2022-08-14T14:17:48.019Z,57.75
2022-08-14T14:20:35.521Z,58.26
2022-08-14T14:23:17.555Z,58.00
2022-08-14T14:25:50.437Z,58.05
2022-08-14T14:28:32.921Z,58.32
2022-08-14T14:31:06.185Z,58.75
2022-08-14T14:33:51.400Z,57.80
2022-08-14T14:36:26.718Z,57.59
2022-08-14T14:39:07.156Z,56.98
2022-08-14T14:41:43.687Z,57.65
2022-08-14T14:44:15.997Z,57.50
2022-08-14T14:46:50.205Z,58.73
2022-08-14T14:49:31.859Z,59.14
2022-08-14T14:52:23.321Z,60.37
2022-08-14T14:54:59.466Z,61.85
2022-08-14T14:57:34.748Z,62.90
2022-08-14T15:00:19.530Z,63.53
2022-08-14T15:02:51.572Z,63.77
2022-08-14T15:05:21.116Z,63.65
2022-08-14T15:07:51.352Z,65.44
2022-08-14T15:10:28.103Z,69.12
2022-08-14T15:13:04.384Z,71.37
2022-08-14T15:15:36.955Z,74.19
2022-08-14T15:18:36.772Z,76.50
2022-08-14T15:20:58.513Z,78.37
2022-08-14T15:23:44.281Z,79.55
2022-08-14T15:26:30.882Z,80.09
2022-08-14T15:29:08.336Z,79.33
2022-08-14T15:31:37.020Z,80.69
2022-08-14T15:34:46.051Z,81.47
2022-08-14T15:37:06.111Z,80.07
2022-08-14T15:39:35.711Z,79.85
2022-08-14T15:42:15.013Z,79.63
2022-08-14T15:44:57.556Z,78.14
2022-08-14T15:47:41.694Z,78.65
2022-08-14T15:50:13.337Z,79.11
2022-08-14T15:52:44.893Z,78.42
2022-08-14T15:55:15.563Z,77.62
2022-08-14T15:58:01.338Z,77.78
2022-08-14T16:00:55.248Z,76.84
2022-08-14T16:03:34.924Z,74.63
2022-08-14T16:06:11.168Z,74.16
2022-08-14T16:08:46.215Z,73.04
2022-08-14T16:11:17.740Z,72.04
2022-08-14T16:13:47.654Z,72.22
2022-08-14T16:16:47.271Z,73.07
2022-08-14T16:19:20.996Z,72.19
2022-08-14T16:22:01.295Z,71.69
2022-08-14T16:24:33.727Z,70.57
2022-08-14T16:27:05.180Z,68.92
2022-08-14T16:29:41.909Z,68.84
2022-08-14T16:32:33.605Z,67.58
2022-08-14T16:34:58.709Z,67.76
2022-08-14T16:37:30.883Z,66.94
2022-08-14T16:40:06.074Z,66.57
2022-08-14T16:43:04.802Z,67.85
2022-08-14T16:45:31.773Z,69.95
2022-08-14T16:48:05.308Z,72.43
2022-08-14T16:50:53.429Z,74.60
2022-08-14T16:53:44.091Z,73.15
2022-08-14T16:56:23.405Z,73.22
2022-08-14T16:59:05.098Z,73.49
2022-08-14T17:01:32.754Z,72.85
2022-08-14T17:04:15.034Z,72.28
2022-08-14T17:06:55.595Z,73.79
2022-08-14T17:09:43.416Z,74.27
2022-08-14T17:12:33.698Z,74.96
2022-08-14T17:15:10.509Z,74.96
2022-08-14T17:17:57.773Z,75.18
2022-08-14T17:20:51.524Z,75.36
2022-08-14T17:23:15.041Z,74.79
2022-08-14T17:25:49.266Z,74.41
2022-08-14T17:28:51.535Z,74.03
2022-08-14T17:31:12.353Z,73.97
2022-08-14T17:33:44.754Z,74.17
2022-08-14T17:36:23.144Z,73.99
2022-08-14T17:39:15.265Z,74.06
2022-08-14T17:42:02.994Z,73.78
2022-08-14T17:44:44.957Z,72.97
2022-08-14T17:47:18.039Z,72.36
2022-08-14T17:49:51.893Z,72.32
2022-08-14T17:52:34.698Z,72.82
2022-08-14T17:56:00.476Z,72.53
2022-08-14T17:57:59.322Z,71.59
2022-08-14T18:00:30.633Z,72.04
2022-08-14T18:02:58.573Z,71.61
2022-08-14T18:06:09.699Z,71.72
2022-08-14T18:08:33.629Z,72.95
2022-08-14T18:11:04.091Z,73.44
2022-08-14T18:13:51.664Z,72.39
2022-08-14T18:16:24.948Z,71.60
2022-08-14T18:21:57.354Z,70.67
2022-08-14T18:24:33.248Z,70.78
2022-08-14T18:27:12.944Z,71.56
2022-08-14T18:29:55.568Z,71.19
2022-08-14T18:32:37.401Z,71.41
2022-08-14T18:35:11.258Z,71.72
2022-08-14T18:37:55.935Z,71.75
2022-08-14T18:40:35.015Z,72.81
2022-08-14T18:43:05.919Z,73.03
2022-08-14T18:45:41.491Z,72.78
2022-08-14T18:48:15.728Z,73.27
2022-08-14T18:50:56.271Z,73.65
2022-08-14T18:53:25.464Z,73.10
2022-08-14T18:56:09.599Z,73.06
2022-08-14T18:58:58.734Z,72.71
2022-08-14T19:01:30.346Z,72.23
2022-08-14T19:04:01.046Z,72.39
2022-08-14T19:06:37.897Z,72.41
2022-08-14T19:09:06.617Z,72.25
2022-08-14T19:11:37.733Z,72.72
2022-08-14T19:14:06.603Z,72.54
2022-08-14T19:16:36.934Z,71.72
2022-08-14T19:19:07.011Z,71.71
2022-08-14T19:21:39.123Z,71.23
2022-08-14T19:24:27.337Z,70.94
2022-08-14T19:27:19.211Z,71.24
2022-08-14T19:29:51.238Z,71.27
2022-08-14T19:32:36.641Z,71.39
2022-08-14T19:35:49.621Z,72.04
2022-08-14T19:38:51.662Z,71.35
2022-08-14T19:41:29.239Z,71.96
2022-08-14T19:44:19.190Z,71.67
2022-08-14T19:47:01.836Z,71.80
2022-08-14T19:50:30.354Z,71.23
2022-08-14T19:52:29.783Z,71.58
2022-08-14T19:55:01.158Z,71.26
2022-08-14T19:57:33.218Z,71.06
2022-08-14T20:00:27.951Z,70.97
2022-08-14T20:03:10.848Z,71.27
2022-08-14T20:05:45.837Z,70.64
2022-08-14T20:08:40.436Z,71.67
2022-08-14T20:12:00.575Z,71.91
2022-08-14T20:14:20.319Z,72.25
2022-08-14T20:17:01.696Z,72.41
2022-08-14T20:19:37.900Z,72.64
2022-08-14T20:22:36.365Z,73.89
2022-08-14T20:25:27.168Z,74.43
2022-08-14T20:28:29.865Z,76.11
2022-08-14T20:31:18.187Z,76.58
2022-08-14T20:34:19.099Z,77.58
2022-08-14T20:37:04.391Z,78.00
2022-08-14T20:39:34.136Z,77.56
2022-08-14T20:42:30.349Z,78.33
2022-08-14T20:45:23.475Z,76.56
2022-08-14T20:48:08.978Z,75.49
2022-08-14T20:50:36.851Z,75.31
2022-08-14T20:53:34.721Z,75.01
2022-08-14T20:56:29.015Z,75.82
2022-08-14T20:58:57.871Z,76.79
2022-08-14T21:01:32.692Z,77.64
2022-08-14T21:04:11.996Z,78.38
2022-08-14T21:07:24.462Z,77.75
2022-08-14T21:10:05.814Z,77.25
2022-08-14T21:12:34.659Z,77.10
2022-08-14T21:15:10.400Z,76.64
2022-08-14T21:17:47.245Z,76.85
2022-08-14T21:20:25.897Z,77.13
2022-08-14T21:22:56.385Z,76.25
2022-08-14T21:25:24.344Z,76.07
2022-08-14T21:27:57.196Z,75.29
2022-08-14T21:30:46.624Z,74.22
2022-08-14T21:33:12.448Z,75.08
2022-08-14T21:35:46.809Z,75.10
2022-08-14T21:38:18.583Z,74.84
2022-08-14T21:40:53.407Z,74.88
2022-08-14T21:43:23.679Z,75.29
2022-08-14T21:45:58.778Z,75.11
2022-08-14T21:48:31.028Z,74.36
2022-08-14T21:51:53.502Z,73.99
2022-08-14T21:53:59.210Z,75.75
2022-08-14T21:56:38.382Z,76.88
2022-08-14T21:59:11.173Z,77.83
2022-08-14T22:02:00.748Z,77.02
2022-08-14T22:04:40.702Z,77.25
2022-08-14T22:07:18.567Z,76.63
2022-08-14T22:09:54.747Z,76.26
2022-08-14T22:12:45.552Z,75.98
2022-08-14T22:15:30.174Z,76.48
2022-08-14T22:17:59.706Z,76.37
2022-08-14T22:20:28.829Z,76.17
2022-08-14T22:22:57.914Z,75.64
2022-08-14T22:25:33.317Z,75.27
2022-08-14T22:28:05.906Z,74.94
2022-08-14T22:30:34.875Z,74.80
2022-08-14T22:33:05.899Z,75.35
2022-08-14T22:35:37.718Z,75.56
2022-08-14T22:38:36.417Z,75.32
2022-08-14T22:41:25.307Z,75.05
2022-08-14T22:43:47.514Z,75.98
2022-08-14T22:46:20.454Z,76.04
2022-08-14T22:48:57.419Z,75.71
2022-08-14T22:51:27.662Z,76.55
2022-08-14T22:54:02.678Z,76.74
2022-08-14T22:56:32.317Z,76.14
2022-08-14T22:59:09.637Z,76.81
2022-08-14T23:01:56.337Z,78.14
2022-08-14T23:04:35.568Z,78.22
2022-08-14T23:07:23.215Z,77.81
2022-08-14T23:09:57.761Z,77.37
2022-08-14T23:12:47.702Z,76.61
2022-08-14T23:15:24.720Z,77.17
2022-08-14T23:17:57.841Z,76.82
2022-08-14T23:20:29.347Z,75.92
2022-08-14T23:22:58.226Z,75.96
2022-08-14T23:25:44.729Z,77.46
2022-08-14T23:28:33.309Z,77.07
2022-08-14T23:31:26.573Z,77.34
2022-08-14T23:34:11.040Z,77.28
2022-08-14T23:36:54.481Z,76.10
2022-08-14T23:39:32.701Z,76.00
2022-08-14T23:42:06.346Z,75.92
2022-08-14T23:44:37.080Z,75.81
2022-08-14T23:47:11.722Z,75.82
2022-08-14T23:50:03.540Z,75.75
2022-08-14T23:52:50.972Z,76.02
2022-08-14T23:55:32.846Z,75.63
2022-08-14T23:58:00.971Z,75.33
